Aviation Digital Data Service (ADDS)

Output produced by METARs form (1006 UTC 23 October 2017)
found at http://aviationweather.gov/adds/metars/
 
KGON 230833Z 2309/2406 VRB02KT 3SM BR SCT005 SCT040 BKN250 
     TEMPO 2309/2312 1/4SM FG BKN001 
     FM231400 15007KT P6SM SCT006 BKN040 
     FM231800 15010KT P6SM SCT006 BKN035 
     FM240000 15012KT 6SM -DZ BR SCT008 BKN025